createdAt,value
2022-10-03T00:00:23.964Z,24.75
2022-10-03T00:03:12.960Z,30.25
2022-10-03T00:05:48.487Z,32.00
2022-10-03T00:08:24.613Z,31.00
2022-10-03T00:11:01.655Z,28.75
2022-10-03T00:13:39.625Z,31.00
2022-10-03T00:16:15.524Z,32.25
2022-10-03T00:18:55.119Z,28.25
2022-10-03T00:21:37.232Z,31.25
2022-10-03T00:24:12.845Z,27.00
2022-10-03T00:26:49.064Z,24.00
2022-10-03T00:29:34.246Z,31.00
2022-10-03T00:32:10.707Z,32.00
2022-10-03T00:34:48.289Z,32.00
2022-10-03T00:37:27.826Z,26.75
2022-10-03T00:40:06.347Z,30.25
2022-10-03T00:42:53.905Z,31.00
2022-10-03T00:45:40.206Z,28.75
2022-10-03T00:48:28.500Z,34.00
2022-10-03T00:51:13.572Z,38.60
2022-10-03T00:53:50.820Z,27.50
2022-10-03T00:56:35.695Z,30.00
2022-10-03T00:59:15.042Z,28.25
2022-10-03T01:01:48.877Z,28.00
2022-10-03T01:04:33.898Z,27.25
2022-10-03T01:07:09.924Z,32.00
2022-10-03T01:09:51.255Z,32.00
2022-10-03T01:12:41.019Z,32.50
2022-10-03T01:15:18.971Z,35.00
2022-10-03T01:17:57.195Z,37.50
2022-10-03T01:20:37.067Z,35.00
2022-10-03T01:23:26.073Z,35.00
2022-10-03T01:26:04.672Z,35.00
2022-10-03T01:29:06.288Z,28.00
2022-10-03T01:31:43.962Z,36.50
2022-10-03T01:34:20.242Z,35.75
2022-10-03T01:36:57.155Z,36.75
2022-10-03T01:39:30.818Z,31.40
2022-10-03T01:42:03.499Z,38.80
2022-10-03T01:44:43.630Z,21.25
2022-10-03T01:47:22.848Z,34.25
2022-10-03T01:49:57.541Z,32.00
2022-10-03T01:52:34.794Z,32.00
2022-10-03T01:55:09.195Z,30.75
2022-10-03T01:57:43.916Z,33.00
2022-10-03T02:00:19.137Z,35.00
2022-10-03T02:02:53.209Z,31.25
2022-10-03T02:05:29.307Z,34.50
2022-10-03T02:08:06.243Z,33.75
2022-10-03T02:10:42.966Z,34.50
2022-10-03T02:13:17.980Z,30.50
2022-10-03T02:15:59.728Z,31.00
2022-10-03T02:18:38.718Z,33.25
2022-10-03T02:21:14.849Z,34.50
2022-10-03T02:23:47.554Z,29.00
2022-10-03T02:26:33.851Z,35.00
2022-10-03T02:29:21.944Z,34.50
2022-10-03T02:32:12.363Z,34.75
2022-10-03T02:35:02.207Z,37.00
2022-10-03T02:37:53.916Z,39.25
2022-10-03T02:40:39.616Z,37.00
2022-10-03T02:43:28.927Z,36.00
2022-10-03T02:46:18.419Z,34.00
2022-10-03T02:49:02.754Z,33.00
2022-10-03T02:51:41.867Z,34.00
2022-10-03T02:54:38.568Z,34.25
2022-10-03T02:57:40.491Z,33.25
2022-10-03T03:00:16.090Z,31.00
2022-10-03T03:03:05.248Z,32.50
2022-10-03T03:06:06.305Z,33.00
2022-10-03T03:09:01.753Z,31.00
2022-10-03T03:11:49.120Z,34.50
2022-10-03T03:14:44.132Z,34.00
2022-10-03T03:17:23.220Z,31.25
2022-10-03T03:20:07.337Z,31.00
2022-10-03T03:22:44.259Z,32.00
2022-10-03T03:25:32.773Z,30.25
2022-10-03T03:28:14.159Z,34.75
2022-10-03T03:30:52.193Z,32.00
2022-10-03T03:33:29.901Z,31.00
2022-10-03T03:36:05.164Z,32.00
2022-10-03T03:38:41.720Z,30.25
2022-10-03T03:41:22.243Z,29.00
2022-10-03T03:44:07.938Z,29.00
2022-10-03T03:46:45.659Z,29.00
2022-10-03T03:49:25.764Z,28.75
2022-10-03T03:52:04.857Z,30.00
2022-10-03T03:54:45.226Z,29.00
2022-10-03T03:57:28.639Z,30.00
2022-10-03T04:00:20.370Z,30.50
2022-10-03T04:03:07.891Z,30.00
2022-10-03T04:05:56.604Z,33.00
2022-10-03T04:08:36.311Z,34.00
2022-10-03T04:11:14.827Z,32.60
2022-10-03T04:13:54.045Z,30.00
2022-10-03T04:16:51.531Z,29.80
2022-10-03T04:19:30.429Z,31.00
2022-10-03T04:22:13.468Z,28.00
2022-10-03T04:24:55.781Z,26.00
2022-10-03T04:27:51.026Z,29.60
2022-10-03T04:30:23.759Z,30.60
2022-10-03T04:33:01.047Z,28.00
2022-10-03T04:35:45.836Z,30.00
2022-10-03T04:38:23.900Z,30.20
2022-10-03T04:41:01.798Z,20.25
2022-10-03T04:43:39.001Z,27.50
2022-10-03T04:46:21.066Z,30.00
2022-10-03T04:48:56.297Z,28.60
2022-10-03T04:51:36.895Z,29.80
2022-10-03T04:54:16.935Z,30.00
2022-10-03T04:56:53.811Z,29.40
2022-10-03T04:59:37.564Z,9.80
2022-10-03T05:02:14.179Z,29.00
2022-10-03T05:04:48.241Z,29.40
2022-10-03T05:07:25.790Z,28.00
2022-10-03T05:10:05.351Z,28.60
2022-10-03T05:12:41.814Z,30.40
2022-10-03T05:15:22.988Z,30.00
2022-10-03T05:18:00.256Z,28.80
2022-10-03T05:20:52.095Z,32.80
2022-10-03T05:23:32.844Z,27.00
2022-10-03T05:26:43.052Z,29.40
2022-10-03T05:29:07.592Z,28.40
2022-10-03T05:31:47.473Z,21.40
2022-10-03T05:34:25.212Z,29.00
2022-10-03T05:37:12.298Z,28.00
2022-10-03T05:39:49.361Z,27.80
2022-10-03T05:42:36.143Z,26.20
2022-10-03T05:45:10.057Z,24.00
2022-10-03T05:47:52.805Z,25.60
2022-10-03T05:50:38.302Z,24.20
2022-10-03T05:53:20.824Z,27.00
2022-10-03T05:56:02.650Z,24.60
2022-10-03T05:58:49.990Z,25.20
2022-10-03T06:01:44.558Z,27.00
2022-10-03T06:04:31.062Z,25.60
2022-10-03T06:07:08.926Z,27.00
2022-10-03T06:10:02.469Z,26.60
2022-10-03T06:12:41.866Z,23.00
2022-10-03T06:15:33.366Z,27.40
2022-10-03T06:18:12.608Z,26.00
2022-10-03T06:21:06.970Z,26.40
2022-10-03T06:23:51.230Z,22.20
2022-10-03T06:26:37.637Z,26.60
2022-10-03T06:29:38.865Z,24.80
2022-10-03T06:32:19.264Z,23.60
2022-10-03T06:35:10.433Z,25.60
2022-10-03T06:38:04.070Z,18.00
2022-10-03T06:40:53.043Z,23.40
2022-10-03T06:43:43.114Z,19.60
2022-10-03T06:46:39.897Z,20.40
2022-10-03T06:49:25.972Z,18.80
2022-10-03T06:52:10.328Z,19.00
2022-10-03T06:55:00.563Z,18.20
2022-10-03T06:57:48.403Z,13.60
2022-10-03T07:00:23.402Z,9.00
2022-10-03T07:03:13.625Z,12.40
2022-10-03T07:06:11.383Z,13.00
2022-10-03T07:09:01.187Z,2.20
2022-10-03T07:11:50.675Z,9.80
2022-10-03T07:14:42.389Z,17.40
2022-10-03T07:17:29.596Z,14.00
2022-10-03T07:20:23.979Z,14.80
2022-10-03T07:23:19.241Z,16.40
2022-10-03T07:26:14.131Z,17.60
2022-10-03T07:29:02.843Z,13.20
2022-10-03T07:31:44.991Z,15.00
2022-10-03T07:34:31.937Z,14.00
2022-10-03T07:37:46.360Z,15.40
2022-10-03T07:40:38.213Z,0.00
2022-10-03T07:43:27.520Z,13.60
2022-10-03T07:46:32.764Z,12.20
2022-10-03T07:49:18.292Z,18.00
2022-10-03T07:52:02.257Z,15.80
2022-10-03T07:54:53.259Z,15.40
2022-10-03T07:57:33.743Z,12.80
2022-10-03T08:00:24.767Z,16.80
2022-10-03T08:03:31.141Z,12.00
2022-10-03T08:06:17.496Z,17.00
2022-10-03T08:09:03.019Z,13.00
2022-10-03T08:11:50.926Z,9.20
2022-10-03T08:14:22.814Z,5.20
2022-10-03T08:17:13.102Z,15.00
2022-10-03T08:19:58.946Z,13.20
2022-10-03T08:22:40.825Z,6.40
2022-10-03T08:25:48.237Z,13.00
2022-10-03T08:28:43.351Z,11.80
2022-10-03T08:31:29.166Z,9.40
2022-10-03T08:34:16.258Z,10.60
2022-10-03T08:37:05.699Z,12.00
2022-10-03T08:39:56.411Z,13.00
2022-10-03T08:42:44.885Z,13.00
2022-10-03T08:45:33.203Z,7.00
2022-10-03T08:48:26.585Z,6.80
2022-10-03T08:51:08.643Z,11.40
2022-10-03T08:54:02.976Z,13.80
2022-10-03T08:56:45.737Z,8.80
2022-10-03T08:59:39.300Z,9.00
2022-10-03T09:02:33.991Z,9.60
2022-10-03T09:05:19.510Z,12.20
2022-10-03T09:08:05.703Z,14.60
2022-10-03T09:10:42.273Z,10.00
2022-10-03T09:13:26.177Z,12.20
2022-10-03T09:16:17.578Z,12.80
2022-10-03T09:18:56.933Z,11.80
2022-10-03T09:21:58.314Z,7.00
2022-10-03T09:24:44.185Z,4.00
2022-10-03T09:27:37.780Z,9.00
2022-10-03T09:30:20.207Z,9.00
2022-10-03T09:33:06.616Z,12.00
2022-10-03T09:35:49.379Z,9.60
2022-10-03T09:38:42.980Z,7.00
2022-10-03T09:41:26.069Z,12.00
2022-10-03T09:44:20.708Z,13.00
2022-10-03T09:47:19.473Z,6.00
2022-10-03T09:50:05.005Z,2.00
2022-10-03T09:52:48.342Z,2.00
2022-10-03T09:55:42.916Z,1.80
2022-10-03T09:58:31.624Z,9.20
2022-10-03T10:01:23.706Z,2.20
2022-10-03T10:04:12.788Z,10.00
2022-10-03T10:07:10.025Z,9.40
2022-10-03T10:09:56.104Z,11.80
2022-10-03T10:12:44.974Z,10.80
2022-10-03T10:15:31.519Z,12.00
2022-10-03T10:18:16.925Z,6.00
2022-10-03T10:21:06.375Z,6.60
2022-10-03T10:23:46.775Z,11.00
2022-10-03T10:26:37.796Z,6.40
2022-10-03T10:29:35.328Z,9.00
2022-10-03T10:32:26.883Z,10.00
2022-10-03T10:35:17.204Z,12.00
2022-10-03T10:38:04.610Z,12.00
2022-10-03T10:40:54.911Z,13.00
2022-10-03T10:43:40.331Z,12.20
2022-10-03T10:46:29.635Z,9.80
2022-10-03T10:49:30.951Z,9.00
2022-10-03T10:52:15.848Z,12.00
2022-10-03T10:55:05.992Z,9.60
2022-10-03T10:57:58.768Z,12.80
2022-10-03T11:00:34.249Z,12.80
2022-10-03T11:03:35.227Z,14.00
2022-10-03T11:06:36.762Z,11.80
2022-10-03T11:09:26.786Z,2.60
2022-10-03T11:12:18.244Z,4.40
2022-10-03T11:15:04.473Z,1.40
2022-10-03T11:17:52.828Z,12.80
2022-10-03T11:20:43.665Z,12.00
2022-10-03T11:23:35.570Z,11.20
2022-10-03T11:26:24.525Z,14.80
2022-10-03T11:29:25.851Z,13.60
2022-10-03T11:32:15.621Z,13.20
2022-10-03T11:35:07.999Z,14.60
2022-10-03T11:37:43.310Z,13.80
2022-10-03T11:40:23.272Z,15.00
2022-10-03T11:42:59.025Z,11.00
2022-10-03T11:45:35.237Z,13.60
2022-10-03T11:48:14.704Z,14.80
2022-10-03T11:50:48.563Z,14.00
2022-10-03T11:53:33.906Z,9.00
2022-10-03T11:56:15.110Z,5.40
2022-10-03T11:58:54.694Z,6.80
2022-10-03T12:01:36.677Z,12.00
2022-10-03T12:04:13.813Z,10.20
2022-10-03T12:07:30.290Z,12.20
2022-10-03T12:10:05.879Z,4.80
2022-10-03T12:12:40.839Z,3.00
2022-10-03T12:15:21.725Z,6.00
2022-10-03T12:18:02.123Z,6.80
2022-10-03T12:20:38.706Z,9.00
2022-10-03T12:23:21.188Z,6.20
2022-10-03T12:25:53.211Z,3.20
2022-10-03T12:28:27.097Z,10.20
2022-10-03T12:31:02.284Z,8.40
2022-10-03T12:33:43.813Z,5.60
2022-10-03T12:36:17.245Z,7.60
2022-10-03T12:38:56.490Z,3.20
2022-10-03T12:41:34.371Z,6.20
2022-10-03T12:44:16.735Z,8.20
2022-10-03T12:46:53.346Z,9.00
2022-10-03T12:49:37.644Z,11.00
2022-10-03T12:52:17.787Z,18.00
2022-10-03T12:54:51.832Z,12.00
2022-10-03T12:57:47.985Z,17.60
2022-10-03T13:00:23.922Z,17.00
2022-10-03T13:03:06.867Z,13.40
2022-10-03T13:05:47.828Z,19.80
2022-10-03T13:08:26.266Z,19.20
2022-10-03T13:10:59.688Z,16.20
2022-10-03T13:13:35.235Z,11.60
2022-10-03T13:16:18.126Z,17.60
2022-10-03T13:18:52.649Z,21.40
2022-10-03T13:21:46.237Z,17.40
2022-10-03T13:24:29.478Z,11.00
2022-10-03T13:27:07.018Z,6.60
2022-10-03T13:29:42.396Z,12.00
2022-10-03T13:32:18.054Z,26.25
2022-10-03T13:34:59.953Z,13.25
2022-10-03T13:37:38.853Z,179.20
2022-10-03T13:40:11.454Z,190.50
2022-10-03T13:42:46.696Z,128.00
2022-10-03T13:45:20.266Z,7.00
2022-10-03T13:47:56.080Z,16.20
2022-10-03T13:50:32.198Z,12.00
2022-10-03T13:53:10.296Z,10.60
2022-10-03T13:55:46.777Z,16.40
2022-10-03T13:58:26.809Z,24.00
2022-10-03T14:01:05.318Z,11.80
2022-10-03T14:03:43.398Z,7.60
2022-10-03T14:06:21.595Z,7.40
2022-10-03T14:09:10.365Z,2.00
2022-10-03T14:11:47.338Z,12.60
2022-10-03T14:14:35.953Z,14.20
2022-10-03T14:17:12.732Z,16.80
2022-10-03T14:19:49.123Z,10.60
2022-10-03T14:22:38.470Z,19.60
2022-10-03T14:25:27.509Z,17.80
2022-10-03T14:28:04.310Z,7.00
2022-10-03T14:30:53.167Z,16.20
2022-10-03T14:33:35.858Z,14.60
2022-10-03T14:36:15.320Z,12.00
2022-10-03T14:39:03.897Z,20.80
2022-10-03T14:41:43.296Z,17.40
2022-10-03T14:44:20.476Z,18.40
2022-10-03T14:46:54.438Z,7.20
2022-10-03T14:49:53.487Z,13.80
2022-10-03T14:52:28.725Z,11.20
2022-10-03T14:55:01.657Z,17.20
2022-10-03T14:57:47.845Z,17.60
2022-10-03T15:00:31.205Z,10.20
2022-10-03T15:03:18.006Z,23.80
2022-10-03T15:05:59.674Z,23.60
2022-10-03T15:08:37.387Z,23.00
2022-10-03T15:11:09.543Z,23.20
2022-10-03T15:13:44.017Z,22.00
2022-10-03T15:16:20.793Z,21.00
2022-10-03T15:18:55.480Z,25.00
2022-10-03T15:21:28.371Z,25.00
2022-10-03T15:24:02.459Z,24.80
2022-10-03T15:26:37.950Z,23.60
2022-10-03T15:29:11.192Z,23.20
2022-10-03T15:31:46.824Z,23.00
2022-10-03T15:34:21.071Z,20.80
2022-10-03T15:36:55.656Z,17.20
2022-10-03T15:39:28.647Z,28.20
2022-10-03T15:42:06.007Z,20.60
2022-10-03T15:44:41.941Z,23.20
2022-10-03T15:47:16.592Z,18.80
2022-10-03T15:49:51.701Z,34.75
2022-10-03T15:52:24.520Z,33.25
2022-10-03T15:55:10.993Z,33.50
2022-10-03T15:57:46.805Z,28.50
2022-10-03T16:00:29.968Z,32.00
2022-10-03T16:03:09.183Z,30.75
2022-10-03T16:05:40.917Z,30.00
2022-10-03T16:08:15.822Z,23.80
2022-10-03T16:10:51.957Z,22.20
2022-10-03T16:13:29.254Z,18.20
2022-10-03T16:16:13.572Z,21.80
2022-10-03T16:18:55.500Z,28.00
2022-10-03T16:21:33.669Z,27.20
2022-10-03T16:24:06.005Z,24.00
2022-10-03T16:26:43.394Z,26.60
2022-10-03T16:29:16.635Z,28.20
2022-10-03T16:31:54.285Z,27.60
2022-10-03T16:34:28.502Z,28.00
2022-10-03T16:37:01.207Z,42.40
2022-10-03T16:39:36.616Z,25.60
2022-10-03T16:42:13.584Z,29.00
2022-10-03T16:44:52.389Z,26.20
2022-10-03T16:47:31.635Z,24.80
2022-10-03T16:50:21.431Z,13.40
2022-10-03T16:52:55.284Z,17.40
2022-10-03T16:55:29.172Z,41.50
2022-10-03T16:58:03.346Z,23.60
2022-10-03T17:00:37.870Z,16.00
2022-10-03T17:03:19.040Z,17.75
2022-10-03T17:05:53.540Z,16.40
2022-10-03T17:08:41.140Z,28.20
2022-10-03T17:11:19.556Z,23.00
2022-10-03T17:13:54.729Z,17.00
2022-10-03T17:16:30.374Z,25.40
2022-10-03T17:19:11.342Z,16.60
2022-10-03T17:21:46.348Z,20.00
2022-10-03T17:24:20.079Z,28.00
2022-10-03T17:26:54.721Z,25.80
2022-10-03T17:29:30.190Z,20.80
2022-10-03T17:32:03.743Z,28.00
2022-10-03T17:34:37.942Z,25.40
2022-10-03T17:37:15.705Z,9.80
2022-10-03T17:39:53.741Z,29.00
2022-10-03T17:42:32.776Z,28.00
2022-10-03T17:45:13.891Z,26.00
2022-10-03T17:47:50.146Z,28.75
2022-10-03T17:50:26.326Z,16.60
2022-10-03T17:52:59.559Z,34.25
2022-10-03T17:55:33.454Z,20.00
2022-10-03T17:58:07.442Z,19.00
2022-10-03T18:00:42.036Z,42.75
2022-10-03T18:03:16.711Z,40.75
2022-10-03T18:05:49.352Z,82.40
2022-10-03T18:08:26.251Z,36.25
2022-10-03T18:10:58.586Z,37.00
2022-10-03T18:13:33.558Z,16.60
2022-10-03T18:16:10.971Z,10.00
2022-10-03T18:18:51.887Z,24.60
2022-10-03T18:21:30.939Z,27.25
2022-10-03T18:24:15.266Z,59.00
2022-10-03T18:26:48.582Z,41.80
2022-10-03T18:29:25.161Z,65.40
2022-10-03T18:32:00.526Z,28.25
2022-10-03T18:34:35.962Z,39.00
2022-10-03T18:37:20.373Z,43.60
2022-10-03T18:39:55.134Z,17.00
2022-10-03T18:42:29.236Z,131.80
2022-10-03T18:45:01.886Z,30.75
2022-10-03T18:47:36.776Z,54.60
2022-10-03T18:50:10.824Z,80.20
2022-10-03T18:52:46.234Z,38.50
2022-10-03T18:55:23.012Z,36.20
2022-10-03T18:58:02.773Z,19.00
2022-10-03T19:00:36.181Z,32.25
2022-10-03T19:03:17.025Z,18.00
2022-10-03T19:05:50.707Z,16.60
2022-10-03T19:08:23.424Z,21.50
2022-10-03T19:10:56.873Z,18.50
2022-10-03T19:13:32.118Z,17.25
2022-10-03T19:16:10.499Z,130.20
2022-10-03T19:18:45.318Z,131.60
2022-10-03T19:21:21.609Z,80.40
2022-10-03T19:23:54.923Z,30.00
2022-10-03T19:26:37.519Z,42.40
2022-10-03T19:29:09.571Z,33.50
2022-10-03T19:31:43.557Z,27.50
2022-10-03T19:34:19.996Z,27.20
2022-10-03T19:36:53.301Z,18.50
2022-10-03T19:39:25.145Z,20.75
2022-10-03T19:42:00.041Z,90.80
2022-10-03T19:44:31.890Z,45.80
2022-10-03T19:47:06.729Z,72.60
2022-10-03T19:49:42.575Z,21.75
2022-10-03T19:52:21.161Z,23.80
2022-10-03T19:54:55.056Z,11.00
2022-10-03T19:57:31.761Z,105.20
2022-10-03T20:00:04.080Z,60.40
2022-10-03T20:02:45.524Z,21.75
2022-10-03T20:05:42.875Z,13.00
2022-10-03T20:08:22.686Z,26.00
2022-10-03T20:11:07.700Z,17.75
2022-10-03T20:13:45.348Z,22.60
2022-10-03T20:16:17.859Z,21.00
2022-10-03T20:18:51.341Z,21.25
2022-10-03T20:21:25.573Z,22.50
2022-10-03T20:23:58.034Z,67.00
2022-10-03T20:26:35.394Z,121.50
2022-10-03T20:29:17.848Z,171.50
2022-10-03T20:31:50.331Z,171.00
2022-10-03T20:34:25.278Z,117.00
2022-10-03T20:37:01.115Z,188.40
2022-10-03T20:39:34.521Z,25.00
2022-10-03T20:42:08.794Z,54.80
2022-10-03T20:44:53.107Z,36.40
2022-10-03T20:47:32.255Z,130.50
2022-10-03T20:50:05.317Z,30.75
2022-10-03T20:52:36.313Z,54.80
2022-10-03T20:55:10.638Z,45.80
2022-10-03T20:57:47.900Z,28.25
2022-10-03T21:00:22.483Z,25.50
2022-10-03T21:02:57.958Z,26.00
2022-10-03T21:05:31.863Z,131.20
2022-10-03T21:08:05.294Z,20.75
2022-10-03T21:10:40.081Z,40.50
2022-10-03T21:13:15.981Z,62.00
2022-10-03T21:15:49.652Z,22.00
2022-10-03T21:18:24.515Z,21.50
2022-10-03T21:21:04.570Z,16.60
2022-10-03T21:23:38.634Z,21.60
2022-10-03T21:26:11.204Z,25.80
2022-10-03T21:28:42.324Z,26.40
2022-10-03T21:31:24.758Z,29.50
2022-10-03T21:34:01.444Z,29.00
2022-10-03T21:36:36.892Z,23.40
2022-10-03T21:39:14.823Z,24.40
2022-10-03T21:41:49.676Z,22.40
2022-10-03T21:44:32.758Z,22.00
2022-10-03T21:47:10.657Z,130.60
2022-10-03T21:49:48.441Z,156.20
2022-10-03T21:52:32.059Z,72.00
2022-10-03T21:55:10.079Z,87.00
2022-10-03T21:57:47.640Z,144.25
2022-10-03T22:00:20.340Z,91.00
2022-10-03T22:03:00.123Z,84.00
2022-10-03T22:05:37.422Z,129.50
2022-10-03T22:08:23.184Z,130.67
2022-10-03T22:11:01.842Z,117.00
2022-10-03T22:13:36.933Z,92.25
2022-10-03T22:16:11.296Z,56.80
2022-10-03T22:19:02.610Z,72.20
2022-10-03T22:21:39.477Z,24.00
2022-10-03T22:24:13.477Z,31.50
2022-10-03T22:26:48.076Z,25.50
2022-10-03T22:29:24.819Z,44.60
2022-10-03T22:32:00.022Z,45.40
2022-10-03T22:34:39.131Z,120.75
2022-10-03T22:37:10.895Z,26.20
2022-10-03T22:39:42.267Z,25.75
2022-10-03T22:42:16.943Z,185.00
2022-10-03T22:44:49.803Z,29.25
2022-10-03T22:47:23.059Z,54.00
2022-10-03T22:50:00.364Z,18.75
2022-10-03T22:52:35.469Z,47.00
2022-10-03T22:55:07.842Z,29.00
2022-10-03T22:57:40.514Z,22.50
2022-10-03T23:00:13.401Z,48.80
2022-10-03T23:02:47.803Z,28.20
2022-10-03T23:05:28.881Z,38.25
2022-10-03T23:08:06.832Z,151.75
2022-10-03T23:10:46.381Z,131.75
2022-10-03T23:13:19.575Z,64.25
2022-10-03T23:15:53.062Z,25.25
2022-10-03T23:18:34.359Z,28.50
2022-10-03T23:21:11.898Z,26.00
2022-10-03T23:23:49.021Z,117.40
2022-10-03T23:26:34.395Z,174.67
2022-10-03T23:29:07.198Z,219.20
2022-10-03T23:31:59.409Z,84.25
2022-10-03T23:34:49.496Z,25.25
2022-10-03T23:37:42.360Z,41.80
2022-10-03T23:40:23.719Z,33.00
2022-10-03T23:43:02.111Z,108.20
2022-10-03T23:45:34.787Z,48.00
2022-10-03T23:48:08.873Z,94.40
2022-10-03T23:50:45.276Z,88.20
2022-10-03T23:53:22.728Z,20.75
2022-10-03T23:55:53.750Z,31.00
2022-10-03T23:58:30.008Z,27.50
